Mistatim, Canada
Current Conditions -  °F | °C
As of 10:00 AM on Monday 24 Nov 2014 (Local Time) from CYBU Reporting Station
Light Snow Light Snow  
Wind Chill:   Ceiling: 600
Heat Index:   Visibility: 9mi
Dew Point:   Wind: 5mph
Humidity: 92%   Direction: 200°SSW
Pressure: 29.89"   Gusts: NA
Location:  52.87°N, 103.37°W
Report Text: CYBU 241600Z AUTO 20004KT 9SM -SN OVC006 M13/M14 A2989 RMK SLP157
Loading
Personal Weather Stations






























Interactive Weather Map New forecast layout! Learn more

10-Day Weather Forecast

Advertisements
Track Severe Weather on mobile